Time;durP1;ratioP1;P1;durP2;ratioP2;P2;SDS_P1;SDS_P2;PMS_P1;PMS_P2;Temp;Humidity;BMP_temperature;BMP_pressure;BME280_temperature;BME280_humidity;BME280_pressure;Samples;Min_cycle;Max_cycle;Signal;HPM_P1;HPM_P2
2022/07/25 00:00:45;;;;;;;8.67;5.93;;;26.30;54.00;;;;;;5096970;28;20216;-88
2022/07/25 00:03:11;;;;;;;6.00;5.40;;;26.30;54.70;;;;;;5097481;28;20256;-87
2022/07/25 00:05:36;;;;;;;6.83;5.57;;;26.30;54.50;;;;;;5114963;28;20559;-89
2022/07/25 00:08:03;;;;;;;6.30;5.70;;;26.30;54.30;;;;;;5098121;28;20181;-89
2022/07/25 00:10:29;;;;;;;6.60;5.60;;;26.30;54.20;;;;;;5098518;28;20171;-89
2022/07/25 00:12:54;;;;;;;5.90;5.30;;;26.30;54.60;;;;;;5116624;28;20178;-88
2022/07/25 00:15:20;;;;;;;6.67;5.97;;;26.20;54.30;;;;;;5098612;28;20205;-89
2022/07/25 00:17:46;;;;;;;8.00;6.00;;;26.30;54.60;;;;;;5099123;28;20170;-89
2022/07/25 00:20:12;;;;;;;6.37;5.43;;;26.20;54.30;;;;;;5098809;28;20610;-89
2022/07/25 00:22:38;;;;;;;7.90;5.93;;;26.20;54.70;;;;;;5098788;28;20166;-89
2022/07/25 00:25:04;;;;;;;6.20;5.60;;;26.20;54.40;;;;;;5098342;28;20201;-89
2022/07/25 00:27:30;;;;;;;6.57;5.23;;;26.20;54.40;;;;;;5098975;28;20178;-88
2022/07/25 00:29:55;;;;;;;9.53;5.30;;;26.10;54.60;;;;;;5097018;28;20173;-89
2022/07/25 00:32:21;;;;;;;6.60;6.00;;;26.10;54.30;;;;;;5095615;28;20178;-88
2022/07/25 00:34:48;;;;;;;7.40;5.77;;;26.10;54.40;;;;;;5096302;28;20556;-88
2022/07/25 00:37:14;;;;;;;6.43;5.43;;;26.00;54.30;;;;;;5113370;28;20162;-89
2022/07/25 00:39:40;;;;;;;6.27;5.67;;;26.00;54.60;;;;;;5096053;28;20177;-88
2022/07/25 00:42:05;;;;;;;6.20;5.57;;;26.00;54.30;;;;;;5097539;28;20202;-89
2022/07/25 00:44:32;;;;;;;6.67;5.40;;;25.90;54.40;;;;;;5097771;28;20659;-88
2022/07/25 00:46:58;;;;;;;6.73;5.70;;;25.90;54.50;;;;;;5098202;28;20171;-89
2022/07/25 00:49:25;;;;;;;6.47;5.50;;;25.90;54.80;;;;;;5098506;28;20246;-89
2022/07/25 00:51:52;;;;;;;6.63;5.90;;;25.90;54.70;;;;;;5097977;28;20250;-88
2022/07/25 00:54:18;;;;;;;7.80;5.53;;;25.80;54.50;;;;;;5098495;28;20264;-88
2022/07/25 00:56:44;;;;;;;6.07;5.40;;;25.80;54.80;;;;;;5098264;28;20277;-88
2022/07/25 00:59:09;;;;;;;6.10;5.60;;;25.80;55.10;;;;;;5097808;28;20265;-88
2022/07/25 01:01:37;;;;;;;6.73;6.00;;;25.80;54.70;;;;;;5097668;28;20212;-88
2022/07/25 01:04:03;;;;;;;6.33;5.70;;;25.70;54.90;;;;;;5115331;28;20162;-88
2022/07/25 01:06:29;;;;;;;6.27;5.53;;;25.70;55.20;;;;;;5098313;28;20166;-88
2022/07/25 01:08:55;;;;;;;7.43;6.27;;;25.60;55.20;;;;;;5115488;28;20253;-88
2022/07/25 01:11:21;;;;;;;6.50;5.90;;;25.60;55.30;;;;;;5096356;28;20189;-88
2022/07/25 01:13:47;;;;;;;6.67;5.90;;;25.50;55.70;;;;;;5097354;28;20182;-89
2022/07/25 01:16:13;;;;;;;7.23;5.70;;;25.50;55.60;;;;;;5097026;28;20170;-88
2022/07/25 01:18:39;;;;;;;6.80;5.80;;;25.50;56.00;;;;;;5114600;28;20463;-89
2022/07/25 01:21:05;;;;;;;6.47;5.80;;;25.50;55.70;;;;;;5096222;28;20218;-88
2022/07/25 01:23:31;;;;;;;7.30;5.70;;;25.40;55.80;;;;;;5096443;28;20230;-89
2022/07/25 01:25:57;;;;;;;7.73;6.20;;;25.40;56.10;;;;;;5112546;28;20560;-89
2022/07/25 01:28:24;;;;;;;6.50;5.50;;;25.40;56.30;;;;;;5095730;28;20169;-89
2022/07/25 01:30:50;;;;;;;7.23;5.77;;;25.40;56.10;;;;;;5096223;28;20171;-89
2022/07/25 01:33:17;;;;;;;6.60;5.90;;;25.50;56.00;;;;;;5095582;28;20193;-88
2022/07/25 01:35:43;;;;;;;6.33;5.77;;;25.50;55.90;;;;;;5095775;28;20178;-89
2022/07/25 01:38:09;;;;;;;6.23;5.60;;;25.50;55.80;;;;;;5097382;28;20209;-89
2022/07/25 01:40:35;;;;;;;6.87;5.93;;;25.60;55.80;;;;;;5097196;28;20290;-89
2022/07/25 01:43:01;;;;;;;6.37;5.77;;;25.60;56.00;;;;;;5115128;28;20653;-89
2022/07/25 01:45:27;;;;;;;8.60;5.50;;;25.70;55.70;;;;;;5097294;28;20182;-88
2022/07/25 01:47:53;;;;;;;6.23;5.63;;;25.70;55.60;;;;;;5115581;28;20498;-89
2022/07/25 01:50:19;;;;;;;5.70;5.20;;;25.70;55.50;;;;;;5095904;28;20174;-89
2022/07/25 01:52:45;;;;;;;6.20;5.40;;;25.70;55.90;;;;;;5097405;28;20338;-89
2022/07/25 01:55:11;;;;;;;6.53;5.13;;;25.90;55.80;;;;;;5096387;28;20182;-88
2022/07/25 01:57:38;;;;;;;5.57;5.07;;;26.00;55.60;;;;;;5095643;28;20189;-89
2022/07/25 02:00:05;;;;;;;6.17;5.57;;;26.00;55.40;;;;;;5096406;28;20175;-89
2022/07/25 02:02:31;;;;;;;6.70;6.10;;;26.10;55.10;;;;;;5114510;28;20162;-89
2022/07/25 02:04:57;;;;;;;6.57;5.50;;;26.00;54.90;;;;;;5095764;28;20463;-89
2022/07/25 02:07:22;;;;;;;6.43;5.83;;;25.90;55.10;;;;;;5097354;28;20178;-89
2022/07/25 02:09:48;;;;;;;5.83;5.23;;;25.90;55.00;;;;;;5114961;28;20193;-89
2022/07/25 02:12:14;;;;;;;10.10;5.30;;;25.90;55.60;;;;;;5114266;28;20166;-89
2022/07/25 02:14:40;;;;;;;6.30;5.77;;;26.00;55.30;;;;;;5113941;28;20269;-89
2022/07/25 02:17:06;;;;;;;6.03;5.43;;;26.00;55.00;;;;;;5096956;28;20514;-89
2022/07/25 02:19:33;;;;;;;7.30;5.63;;;26.00;55.40;;;;;;5114142;28;20388;-89
2022/07/25 02:21:59;;;;;;;5.80;5.30;;;26.00;55.10;;;;;;5096470;28;20229;-88
2022/07/25 02:24:25;;;;;;;6.20;5.60;;;25.80;55.20;;;;;;5096836;28;20547;-89
2022/07/25 02:26:50;;;;;;;5.93;5.40;;;25.80;55.30;;;;;;5096903;28;20184;-88
2022/07/25 02:29:16;;;;;;;6.00;5.40;;;25.70;55.30;;;;;;5114942;28;20162;-89
2022/07/25 02:31:42;;;;;;;6.23;5.40;;;25.70;55.50;;;;;;5097241;28;20198;-88
2022/07/25 02:34:08;;;;;;;7.87;5.80;;;25.70;55.70;;;;;;5096733;28;20186;-88
2022/07/25 02:36:33;;;;;;;6.90;5.50;;;25.70;55.20;;;;;;5114386;28;20645;-89
2022/07/25 02:38:59;;;;;;;7.00;6.20;;;25.60;55.40;;;;;;5096951;28;21163;-89
2022/07/25 02:41:25;;;;;;;5.73;5.13;;;25.50;55.80;;;;;;5095999;28;20217;-89
2022/07/25 02:43:51;;;;;;;6.03;5.53;;;25.60;56.10;;;;;;5095741;28;20520;-88
2022/07/25 02:46:17;;;;;;;6.00;5.40;;;25.60;55.50;;;;;;5095883;28;20180;-89
2022/07/25 02:48:43;;;;;;;6.20;5.60;;;25.50;55.60;;;;;;5098580;28;20170;-89
2022/07/25 02:51:09;;;;;;;6.27;5.77;;;25.50;56.10;;;;;;5099420;28;20482;-89
2022/07/25 02:53:35;;;;;;;7.70;5.60;;;25.50;56.00;;;;;;5117038;28;20177;-89
2022/07/25 02:56:00;;;;;;;5.97;5.40;;;25.50;56.00;;;;;;5099656;28;20170;-89
2022/07/25 02:58:26;;;;;;;6.70;5.57;;;25.50;56.20;;;;;;5098568;28;20583;-88
2022/07/25 03:00:52;;;;;;;5.90;5.40;;;25.50;55.90;;;;;;5099536;28;20413;-89
2022/07/25 03:03:18;;;;;;;5.97;5.33;;;25.50;56.20;;;;;;5099441;28;20289;-89
2022/07/25 03:05:44;;;;;;;6.67;5.50;;;25.60;55.80;;;;;;5099550;28;20587;-89
2022/07/25 03:08:10;;;;;;;6.07;5.47;;;25.50;55.80;;;;;;5099148;28;20163;-88
2022/07/25 03:10:36;;;;;;;5.90;5.30;;;25.40;56.00;;;;;;5098806;28;20174;-88
2022/07/25 03:13:02;;;;;;;6.37;5.60;;;25.40;56.10;;;;;;5100264;28;20178;-88
2022/07/25 03:15:27;;;;;;;6.30;5.70;;;25.40;55.90;;;;;;5099536;28;20174;-88
2022/07/25 03:17:53;;;;;;;5.63;5.13;;;25.30;56.40;;;;;;5100337;28;20180;-89
2022/07/25 03:20:19;;;;;;;7.20;5.60;;;25.40;56.30;;;;;;5099349;28;20209;-89
2022/07/25 03:22:45;;;;;;;8.13;5.70;;;25.40;56.10;;;;;;5099878;28;20178;-88
2022/07/25 03:25:11;;;;;;;7.27;5.67;;;25.40;56.00;;;;;;5100245;28;20162;-88
2022/07/25 03:27:36;;;;;;;6.47;5.60;;;25.30;56.10;;;;;;5099775;28;20180;-88
2022/07/25 03:30:03;;;;;;;8.07;5.77;;;25.30;55.90;;;;;;5099766;28;20177;-88
2022/07/25 03:32:29;;;;;;;5.67;5.17;;;25.40;56.10;;;;;;5099088;28;20177;-88
2022/07/25 03:34:54;;;;;;;6.67;5.20;;;25.30;56.00;;;;;;5099171;28;20261;-89
2022/07/25 03:37:20;;;;;;;6.63;5.00;;;25.20;56.30;;;;;;5099359;28;20243;-88
2022/07/25 03:39:46;;;;;;;6.43;5.80;;;25.20;56.40;;;;;;5099024;28;20177;-88
2022/07/25 03:42:12;;;;;;;6.27;5.53;;;25.20;56.40;;;;;;5116497;28;20209;-88
2022/07/25 03:44:37;;;;;;;6.23;5.63;;;25.30;56.50;;;;;;5098867;28;20174;-88
2022/07/25 03:47:04;;;;;;;6.00;5.40;;;25.20;56.10;;;;;;5098951;28;20231;-88
2022/07/25 03:49:30;;;;;;;5.97;5.37;;;25.20;56.30;;;;;;5116250;28;20258;-89
2022/07/25 03:51:57;;;;;;;5.47;4.97;;;25.20;56.30;;;;;;5099211;28;20534;-88
2022/07/25 03:54:22;;;;;;;5.90;5.30;;;25.10;56.40;;;;;;5098346;28;20205;-89
2022/07/25 03:56:51;;;;;;;6.17;5.33;;;25.10;56.70;;;;;;5115978;28;20428;-88
2022/07/25 03:59:19;;;;;;;8.83;5.33;;;25.00;56.80;;;;;;5098431;28;20235;-89
2022/07/25 04:01:46;;;;;;;6.03;5.43;;;25.10;56.90;;;;;;5097485;28;20202;-88
2022/07/25 04:04:12;;;;;;;6.43;5.60;;;25.10;56.70;;;;;;5097765;28;20170;-89
2022/07/25 04:06:39;;;;;;;5.90;5.30;;;25.00;56.90;;;;;;5097726;28;20508;-89
2022/07/25 04:09:08;;;;;;;5.80;5.30;;;25.00;56.80;;;;;;5115872;28;20567;-89
2022/07/25 04:11:34;;;;;;;6.27;5.27;;;25.00;56.60;;;;;;5096905;28;20170;-89
2022/07/25 04:14:04;;;;;;;5.67;5.17;;;25.10;57.00;;;;;;5095923;28;20166;-89
2022/07/25 04:16:30;;;;;;;5.40;4.90;;;25.00;56.50;;;;;;5096336;28;20321;-88
2022/07/25 04:18:56;;;;;;;6.33;5.40;;;25.00;56.20;;;;;;5095984;28;20619;-88
2022/07/25 04:21:23;;;;;;;7.30;5.90;;;25.10;56.40;;;;;;5095876;28;20317;-88
2022/07/25 04:23:50;;;;;;;5.93;5.43;;;25.10;56.50;;;;;;5096562;28;20556;-89
2022/07/25 04:26:16;;;;;;;5.93;5.43;;;25.10;56.40;;;;;;5113611;28;20193;-89
2022/07/25 04:28:42;;;;;;;6.70;5.37;;;25.10;56.10;;;;;;5095682;28;20239;-88
2022/07/25 04:31:08;;;;;;;6.23;5.63;;;25.20;56.10;;;;;;5095383;28;20170;-89
2022/07/25 04:33:38;;;;;;;6.10;5.50;;;25.20;56.40;;;;;;5095764;28;20202;-88
2022/07/25 04:36:04;;;;;;;5.87;5.33;;;25.30;56.10;;;;;;5095974;28;20575;-89
2022/07/25 04:38:30;;;;;;;6.20;5.60;;;25.40;56.30;;;;;;5095594;28;20468;-88
2022/07/25 04:40:55;;;;;;;7.07;5.80;;;25.40;56.00;;;;;;5094378;28;20209;-88
2022/07/25 04:43:22;;;;;;;6.13;5.30;;;25.40;55.90;;;;;;5094745;28;20597;-88
2022/07/25 04:45:47;;;;;;;6.07;5.27;;;25.50;55.90;;;;;;5096035;28;20173;-88
2022/07/25 04:48:14;;;;;;;6.00;5.40;;;25.50;56.00;;;;;;5096291;28;20231;-88
2022/07/25 04:50:39;;;;;;;5.43;4.93;;;25.60;55.80;;;;;;5096706;28;20217;-89
2022/07/25 04:53:05;;;;;;;6.00;5.50;;;25.70;56.00;;;;;;5096215;28;20198;-87
2022/07/25 04:55:31;;;;;;;6.00;5.37;;;25.80;55.80;;;;;;5096804;28;20262;-89
2022/07/25 04:57:58;;;;;;;6.07;5.43;;;25.80;55.60;;;;;;5096648;28;20560;-89
2022/07/25 05:00:24;;;;;;;7.80;5.50;;;25.90;55.50;;;;;;5096037;28;20228;-89
2022/07/25 05:02:50;;;;;;;6.60;5.07;;;26.00;55.30;;;;;;5095355;28;20556;-89
2022/07/25 05:05:16;;;;;;;5.47;4.97;;;26.10;55.40;;;;;;5092857;28;20571;-89
2022/07/25 05:07:42;;;;;;;6.20;5.17;;;26.20;55.10;;;;;;5093633;28;20466;-89
2022/07/25 05:10:09;;;;;;;5.83;5.23;;;26.30;54.80;;;;;;5095743;28;20166;-89
2022/07/25 05:12:35;;;;;;;5.90;5.30;;;26.30;54.80;;;;;;5113657;28;20167;-89
2022/07/25 05:15:01;;;;;;;8.10;5.07;;;26.30;54.60;;;;;;5095474;28;20166;-89
2022/07/25 05:17:27;;;;;;;9.60;5.70;;;26.30;54.70;;;;;;5095440;28;20181;-89
2022/07/25 05:19:53;;;;;;;7.27;5.23;;;26.30;54.50;;;;;;5095325;28;20461;-89
2022/07/25 05:22:19;;;;;;;6.73;5.50;;;26.30;54.90;;;;;;5094925;28;20595;-89
2022/07/25 05:24:44;;;;;;;5.83;5.23;;;26.30;54.70;;;;;;5095305;28;20170;-90
2022/07/25 05:27:10;;;;;;;6.17;5.57;;;26.30;54.60;;;;;;5095045;28;20499;-89
2022/07/25 05:29:36;;;;;;;6.07;5.47;;;26.30;54.70;;;;;;5095412;28;20181;-90
2022/07/25 05:32:02;;;;;;;7.37;6.03;;;26.40;54.60;;;;;;5095066;28;20182;-89
2022/07/25 05:34:28;;;;;;;5.50;5.00;;;26.40;54.50;;;;;;5094457;28;20178;-89
2022/07/25 05:36:53;;;;;;;5.93;5.40;;;26.50;54.30;;;;;;5095371;28;20419;-89
2022/07/25 05:39:19;;;;;;;6.97;5.50;;;26.60;54.30;;;;;;5094242;28;20181;-89
2022/07/25 05:41:45;;;;;;;6.23;5.10;;;26.70;54.50;;;;;;5094616;28;20298;-89
2022/07/25 05:44:11;;;;;;;6.30;5.70;;;26.70;54.40;;;;;;5095422;28;20197;-88
2022/07/25 05:46:36;;;;;;;8.43;5.67;;;26.80;54.50;;;;;;5095382;28;20231;-89
2022/07/25 05:49:02;;;;;;;6.83;5.50;;;26.80;54.30;;;;;;5095920;28;20166;-89
2022/07/25 05:51:28;;;;;;;7.00;5.30;;;26.90;54.40;;;;;;5094845;28;20177;-89
2022/07/25 05:53:54;;;;;;;7.30;5.47;;;26.90;54.30;;;;;;5094586;28;20559;-89
2022/07/25 05:56:20;;;;;;;7.67;5.87;;;26.90;54.50;;;;;;5094550;28;20265;-89
2022/07/25 05:58:46;;;;;;;7.47;5.90;;;26.90;54.30;;;;;;5094957;28;20197;-89
2022/07/25 06:01:14;;;;;;;8.07;5.83;;;27.00;54.10;;;;;;5093818;28;20484;-89
2022/07/25 06:03:40;;;;;;;6.63;5.60;;;27.20;54.20;;;;;;5094395;28;20165;-89
2022/07/25 06:06:07;;;;;;;5.97;5.17;;;27.20;53.80;;;;;;5111617;28;20493;-89
2022/07/25 06:08:35;;;;;;;6.30;5.60;;;27.30;53.90;;;;;;5111847;28;20470;-89
2022/07/25 06:11:02;;;;;;;6.47;5.40;;;27.40;54.20;;;;;;5111380;28;20167;-89
2022/07/25 06:13:28;;;;;;;7.37;5.70;;;27.40;53.60;;;;;;5113031;28;20182;-88
2022/07/25 06:15:54;;;;;;;6.43;5.37;;;27.50;53.70;;;;;;5094176;28;20182;-89
2022/07/25 06:18:20;;;;;;;6.00;5.40;;;27.70;53.90;;;;;;5093021;28;20468;-90
2022/07/25 06:20:46;;;;;;;9.20;5.40;;;27.70;53.90;;;;;;5093880;28;20461;-90
2022/07/25 06:23:12;;;;;;;6.10;5.40;;;27.90;53.50;;;;;;5098335;28;20174;-89
2022/07/25 06:25:37;;;;;;;5.70;5.20;;;27.90;53.40;;;;;;5098293;28;20430;-89
2022/07/25 06:28:04;;;;;;;6.13;5.53;;;28.00;53.40;;;;;;5096861;28;20166;-90
2022/07/25 06:30:29;;;;;;;6.33;5.50;;;27.90;53.10;;;;;;5096752;28;20174;-89
2022/07/25 06:32:55;;;;;;;5.83;5.33;;;27.90;53.10;;;;;;5096471;28;20185;-89
2022/07/25 06:35:21;;;;;;;6.30;5.70;;;27.80;53.30;;;;;;5097834;28;20265;-88
2022/07/25 06:37:47;;;;;;;6.63;5.60;;;27.80;53.20;;;;;;5097958;28;20219;-89
2022/07/25 06:40:13;;;;;;;6.73;5.20;;;27.70;53.30;;;;;;5097480;28;20466;-88
2022/07/25 06:42:41;;;;;;;6.50;5.90;;;27.60;53.50;;;;;;5095793;28;20446;-89
2022/07/25 06:45:09;;;;;;;6.00;5.40;;;27.60;53.60;;;;;;5113463;28;20594;-89
2022/07/25 06:47:39;;;;;;;5.63;5.13;;;27.70;53.80;;;;;;5095600;28;20170;-89
2022/07/25 06:50:07;;;;;;;6.90;5.47;;;27.70;53.80;;;;;;5097566;28;20205;-89
2022/07/25 06:52:32;;;;;;;6.30;5.10;;;27.80;53.90;;;;;;5095713;28;20173;-89
2022/07/25 06:54:58;;;;;;;8.30;5.70;;;27.70;53.90;;;;;;5097011;28;20165;-89
2022/07/25 06:57:24;;;;;;;6.17;5.47;;;27.80;53.80;;;;;;5096393;28;20170;-89
2022/07/25 06:59:50;;;;;;;7.03;5.43;;;28.00;53.80;;;;;;5114275;28;20166;-89
2022/07/25 07:02:16;;;;;;;6.40;5.80;;;28.20;53.50;;;;;;5095796;28;20213;-89
2022/07/25 07:04:41;;;;;;;5.83;5.33;;;28.20;53.70;;;;;;5095224;28;20170;-89
2022/07/25 07:07:07;;;;;;;6.57;5.80;;;28.20;53.50;;;;;;5095188;28;20166;-89
2022/07/25 07:09:33;;;;;;;7.13;5.83;;;28.10;53.70;;;;;;5094660;28;20175;-89
2022/07/25 07:11:59;;;;;;;5.87;5.37;;;28.10;53.30;;;;;;5096078;28;20171;-89
2022/07/25 07:14:25;;;;;;;6.47;5.60;;;28.20;53.60;;;;;;5096253;28;20181;-89
2022/07/25 07:16:51;;;;;;;5.73;5.13;;;28.30;53.50;;;;;;5095421;28;20362;-89
2022/07/25 07:19:16;;;;;;;6.10;5.30;;;28.40;53.40;;;;;;5113516;28;20170;-89
2022/07/25 07:21:42;;;;;;;6.20;5.70;;;28.50;53.10;;;;;;5094320;28;20300;-89
2022/07/25 07:24:09;;;;;;;6.53;5.47;;;28.60;52.70;;;;;;5095424;28;20178;-89
2022/07/25 07:26:35;;;;;;;6.20;5.60;;;28.60;53.10;;;;;;5113975;28;20178;-88
2022/07/25 07:29:02;;;;;;;6.03;5.43;;;28.60;52.70;;;;;;5095779;28;20177;-89
2022/07/25 07:31:28;;;;;;;6.53;5.90;;;28.90;52.30;;;;;;5095100;28;20166;-88
2022/07/25 07:33:54;;;;;;;7.05;5.80;;;29.00;52.40;;;;;;5093784;28;20793;-89
2022/07/25 07:36:21;;;;;;;6.13;5.57;;;29.00;52.30;;;;;;5113034;28;20166;-89
2022/07/25 07:38:47;;;;;;;5.80;5.30;;;29.00;52.20;;;;;;5095011;28;20170;-89
2022/07/25 07:41:13;;;;;;;8.10;6.30;;;29.00;52.00;;;;;;5094892;28;20206;-90
2022/07/25 07:43:39;;;;;;;6.60;6.00;;;29.20;52.10;;;;;;5095706;28;20457;-89
2022/07/25 07:46:05;;;;;;;6.10;5.50;;;29.50;51.70;;;;;;5094324;28;20170;-89
2022/07/25 07:48:31;;;;;;;6.18;5.50;;;30.00;51.10;;;;;;5094353;28;20489;-89
2022/07/25 07:50:58;;;;;;;6.03;5.47;;;30.50;50.70;;;;;;5092779;28;20170;-88
2022/07/25 07:55:42;;;;;;;6.10;5.32;;;30.50;50.30;;;;;;5094701;28;20182;-89
2022/07/25 07:56:13;;;;;;;5.72;5.18;;;30.60;50.20;;;;;;5112523;28;20547;-89
2022/07/25 07:58:39;;;;;;;6.28;5.57;;;31.00;49.90;;;;;;5093877;28;20460;-89
2022/07/25 08:01:05;;;;;;;5.60;5.10;;;31.10;49.60;;;;;;5093544;28;20452;-89
2022/07/25 08:03:31;;;;;;;5.65;5.15;;;31.20;49.40;;;;;;5094080;28;20265;-89
2022/07/25 08:05:57;;;;;;;6.03;5.43;;;31.40;49.30;;;;;;5093215;28;20624;-89
2022/07/25 08:08:24;;;;;;;6.10;5.50;;;31.50;49.10;;;;;;5094750;28;20174;-89
2022/07/25 08:10:50;;;;;;;6.25;5.43;;;31.80;48.80;;;;;;5094210;28;20298;-88
2022/07/25 08:13:27;;;;;;;5.93;5.43;;;32.30;48.40;;;;;;5111851;28;20178;-89
2022/07/25 08:15:58;;;;;;;5.82;5.32;;;33.10;47.70;;;;;;5111913;28;20578;-89
2022/07/25 08:18:28;;;;;;;5.60;5.10;;;33.20;47.10;;;;;;5094260;28;20351;-89
2022/07/25 08:20:54;;;;;;;5.65;5.18;;;33.00;47.20;;;;;;5111715;28;20236;-89
2022/07/25 08:23:21;;;;;;;5.45;4.95;;;32.80;47.40;;;;;;5094006;28;20584;-89
2022/07/25 08:25:47;;;;;;;5.63;5.13;;;32.50;47.50;;;;;;5111200;28;20322;-89
2022/07/25 08:28:13;;;;;;;6.18;5.57;;;32.70;47.60;;;;;;5093781;28;20202;-89
2022/07/25 08:30:40;;;;;;;6.05;5.55;;;33.00;47.40;;;;;;5112091;28;20182;-89
2022/07/25 08:33:12;;;;;;;5.55;5.05;;;33.10;47.10;;;;;;5092347;28;20246;-89
2022/07/25 08:35:38;;;;;;;6.45;5.80;;;33.20;47.10;;;;;;5093853;28;20463;-89
2022/07/25 08:38:05;;;;;;;5.50;5.00;;;32.90;47.20;;;;;;5112895;28;20181;-88
2022/07/25 08:40:32;;;;;;;5.80;5.20;;;32.80;47.30;;;;;;5094597;28;20651;-89
2022/07/25 08:42:59;;;;;;;5.68;5.18;;;33.30;47.10;;;;;;5092695;28;20280;-89
2022/07/25 08:45:26;;;;;;;5.30;4.90;;;33.20;46.90;;;;;;5093354;28;20571;-88
2022/07/25 08:47:54;;;;;;;7.13;5.07;;;33.00;47.10;;;;;;5093640;28;20167;-88
2022/07/25 08:50:25;;;;;;;6.68;5.45;;;32.90;47.20;;;;;;5110324;28;20162;-88
2022/07/25 08:52:51;;;;;;;5.22;4.80;;;32.70;47.30;;;;;;5092369;28;20227;-89
2022/07/25 08:55:20;;;;;;;10.23;5.45;;;32.50;47.50;;;;;;5093608;28;20381;-89
2022/07/25 08:57:55;;;;;;;5.25;4.85;;;32.50;47.70;;;;;;5091620;28;20261;-89
2022/07/25 09:00:27;;;;;;;5.40;4.90;;;32.50;47.80;;;;;;5108805;28;20185;-89
2022/07/25 09:02:59;;;;;;;6.60;4.80;;;32.50;47.70;;;;;;5091211;28;20257;-89
2022/07/25 09:05:27;;;;;;;5.30;4.80;;;32.20;47.80;;;;;;5092479;28;20178;-89
2022/07/25 09:07:53;;;;;;;5.40;4.90;;;32.00;48.00;;;;;;5109050;28;20323;-89
2022/07/25 09:10:24;;;;;;;5.90;4.60;;;31.80;48.20;;;;;;5092085;28;20514;-89
2022/07/25 09:12:59;;;;;;;5.32;4.82;;;31.60;48.50;;;;;;5091697;28;20177;-89
2022/07/25 09:15:34;;;;;;;5.55;5.13;;;31.80;48.50;;;;;;5091194;28;20192;-89
2022/07/25 09:18:17;;;;;;;5.15;4.75;;;32.00;48.30;;;;;;5092941;28;20278;-89
2022/07/25 09:20:47;;;;;;;6.68;5.15;;;31.90;48.30;;;;;;5091489;28;20663;-89
2022/07/25 09:23:34;;;;;;;5.35;4.85;;;32.50;48.30;;;;;;5092824;28;20174;-89
2022/07/25 09:26:21;;;;;;;5.05;4.53;;;33.60;47.40;;;;;;5091789;28;20567;-89
2022/07/25 09:28:50;;;;;;;5.68;5.18;;;34.20;46.40;;;;;;5092196;28;20517;-89
2022/07/25 09:31:20;;;;;;;5.68;5.18;;;33.60;46.80;;;;;;5090855;28;20565;-88
2022/07/25 09:33:55;;;;;;;5.43;5.03;;;33.70;46.60;;;;;;5092669;28;20197;-89
2022/07/25 09:36:21;;;;;;;5.60;5.10;;;33.80;46.70;;;;;;5083155;28;20472;-89
2022/07/25 09:39:01;;;;;;;5.90;5.28;;;33.80;46.80;;;;;;5084720;28;20645;-88
2022/07/25 09:41:38;;;;;;;5.80;4.93;;;33.50;46.80;;;;;;5092990;28;20216;-89
2022/07/25 09:44:18;;;;;;;5.70;5.20;;;33.10;47.40;;;;;;5091996;28;20197;-88
2022/07/25 09:46:44;;;;;;;5.32;4.88;;;32.90;47.70;;;;;;5092425;28;20170;-89
2022/07/25 09:49:13;;;;;;;6.25;5.20;;;32.90;47.60;;;;;;5110744;28;20237;-89
2022/07/25 09:51:39;;;;;;;5.30;4.80;;;32.90;47.50;;;;;;5091450;28;20205;-89
2022/07/25 09:54:05;;;;;;;5.63;5.05;;;32.90;47.70;;;;;;5092465;28;20233;-89
2022/07/25 09:56:34;;;;;;;6.05;5.40;;;32.90;47.60;;;;;;5094984;28;20349;-88
2022/07/25 09:59:00;;;;;;;5.50;5.00;;;32.90;47.70;;;;;;5098235;28;20174;-91
2022/07/25 10:01:44;;;;;;;5.40;5.00;;;32.70;47.80;;;;;;5098658;28;20683;-89
2022/07/25 10:04:44;;;;;;;7.85;5.43;;;32.60;48.00;;;;;;5097780;28;20170;-89
2022/07/25 10:07:13;;;;;;;5.75;5.00;;;32.40;48.40;;;;;;5097533;28;20204;-89
2022/07/25 10:09:48;;;;;;;7.32;5.22;;;32.50;48.50;;;;;;5097966;28;20166;-89
2022/07/25 10:12:18;;;;;;;5.28;4.78;;;32.50;48.40;;;;;;5100042;28;20178;-89
2022/07/25 10:15:11;;;;;;;6.13;5.53;;;32.50;48.70;;;;;;5097779;28;20184;-89
2022/07/25 10:17:39;;;;;;;5.90;5.30;;;32.40;48.70;;;;;;5098460;28;20173;-89
2022/07/25 10:20:07;;;;;;;5.95;5.40;;;32.40;48.80;;;;;;5098042;28;20169;-89
2022/07/25 10:22:40;;;;;;;5.70;5.22;;;32.30;48.80;;;;;;5098516;28;20209;-89
2022/07/25 10:25:13;;;;;;;7.03;5.30;;;32.30;48.90;;;;;;5116544;28;20185;-88
2022/07/25 10:27:59;;;;;;;6.00;5.07;;;32.20;48.90;;;;;;5097090;28;20170;-88
2022/07/25 10:30:43;;;;;;;5.57;5.07;;;32.00;49.10;;;;;;5098390;28;20166;-88
2022/07/25 10:33:17;;;;;;;6.90;5.20;;;31.90;49.20;;;;;;5097722;28;20195;-89
2022/07/25 10:35:44;;;;;;;5.03;4.63;;;31.70;49.40;;;;;;5098260;28;20170;-89
2022/07/25 10:38:10;;;;;;;6.18;5.05;;;31.60;49.60;;;;;;5098290;28;20163;-89
2022/07/25 10:40:42;;;;;;;5.70;5.07;;;31.50;49.70;;;;;;5095644;28;20201;-90
2022/07/25 10:43:12;;;;;;;5.38;4.88;;;31.40;49.90;;;;;;5114957;28;20755;-90
2022/07/25 10:45:48;;;;;;;5.82;5.20;;;31.20;50.00;;;;;;5114682;28;20251;-89
2022/07/25 10:48:40;;;;;;;6.25;5.65;;;31.20;50.20;;;;;;5097235;28;20198;-89
2022/07/25 10:51:09;;;;;;;7.20;5.30;;;31.10;50.40;;;;;;5091908;28;20448;-90
2022/07/25 10:53:43;;;;;;;6.25;5.43;;;31.10;50.40;;;;;;5114616;28;20174;-89
2022/07/25 10:56:20;;;;;;;5.65;5.00;;;31.10;50.50;;;;;;5095692;28;20173;-89
2022/07/25 10:58:53;;;;;;;6.60;6.00;;;31.10;50.50;;;;;;5096589;28;20173;-90
2022/07/25 11:01:29;;;;;;;6.03;5.43;;;31.00;50.50;;;;;;5099460;28;20208;-89
2022/07/25 11:03:59;;;;;;;6.10;5.15;;;31.00;50.50;;;;;;5096984;28;20759;-89
2022/07/25 11:06:36;;;;;;;5.35;4.85;;;31.00;50.50;;;;;;5116655;28;20242;-89
2022/07/25 11:09:25;;;;;;;5.22;4.82;;;31.00;50.60;;;;;;5091704;28;20250;-89
2022/07/25 11:11:54;;;;;;;5.38;4.88;;;31.20;50.40;;;;;;5112564;28;20162;-89
2022/07/25 11:14:21;;;;;;;4.82;4.38;;;31.20;50.30;;;;;;5096392;28;20174;-89
2022/07/25 11:16:49;;;;;;;9.25;5.22;;;31.30;50.30;;;;;;5094715;28;20170;-89
2022/07/25 11:19:26;;;;;;;5.30;4.72;;;31.30;50.60;;;;;;5095112;28;20167;-89
2022/07/25 11:21:55;;;;;;;5.28;4.78;;;31.20;50.60;;;;;;5112867;28;20217;-89
2022/07/25 11:24:34;;;;;;;5.40;4.70;;;31.20;50.70;;;;;;5095306;28;20166;-89
2022/07/25 11:27:00;;;;;;;5.40;4.90;;;31.20;50.70;;;;;;5093274;28;20232;-89
2022/07/25 11:29:26;;;;;;;5.47;4.97;;;31.20;50.80;;;;;;5111389;28;20245;-88
2022/07/25 11:32:01;;;;;;;5.32;4.82;;;31.20;50.80;;;;;;5093380;28;20585;-89
2022/07/25 11:34:33;;;;;;;5.78;5.18;;;31.20;50.80;;;;;;5092457;28;20177;-88
2022/07/25 11:37:01;;;;;;;5.28;4.75;;;31.20;50.80;;;;;;5092387;28;20174;-89
2022/07/25 11:39:28;;;;;;;5.70;5.07;;;31.30;50.90;;;;;;5093351;28;20559;-89
2022/07/25 11:42:15;;;;;;;5.50;4.88;;;31.30;51.00;;;;;;5109815;28;20484;-89
2022/07/25 11:44:43;;;;;;;5.05;4.65;;;31.40;51.40;;;;;;5094452;28;20194;-89
2022/07/25 11:47:28;;;;;;;5.32;4.82;;;31.50;50.80;;;;;;5110294;28;20174;-89
2022/07/25 11:49:56;;;;;;;5.97;5.38;;;31.50;50.80;;;;;;5092775;28;20202;-89
2022/07/25 11:52:28;;;;;;;5.63;5.03;;;31.40;50.90;;;;;;5092223;28;20226;-89
2022/07/25 11:54:58;;;;;;;5.65;4.95;;;31.50;51.00;;;;;;5093323;28;20185;-88
2022/07/25 11:57:27;;;;;;;6.55;5.35;;;31.50;51.00;;;;;;5093697;28;20193;-89
2022/07/25 11:59:54;;;;;;;5.45;4.95;;;31.50;51.00;;;;;;5093516;28;20170;-89
2022/07/25 12:02:29;;;;;;;5.45;4.93;;;31.50;50.90;;;;;;5111171;28;20198;-89
2022/07/25 12:05:01;;;;;;;5.30;4.90;;;31.50;50.90;;;;;;5111481;28;20230;-89
2022/07/25 12:07:44;;;;;;;5.30;4.75;;;31.60;51.00;;;;;;5093150;28;20167;-88
2022/07/25 12:10:14;;;;;;;5.05;4.65;;;31.60;50.90;;;;;;5091916;28;20206;-88
2022/07/25 12:12:50;;;;;;;5.10;4.65;;;31.60;51.00;;;;;;5093907;28;20272;-88
2022/07/25 12:15:21;;;;;;;7.07;5.65;;;31.60;51.00;;;;;;5094329;28;20177;-89
2022/07/25 12:17:47;;;;;;;5.72;4.70;;;31.50;51.10;;;;;;5094283;28;20182;-89
2022/07/25 12:20:14;;;;;;;4.88;4.18;;;31.50;51.00;;;;;;5094536;28;20177;-91
2022/07/25 12:22:41;;;;;;;5.20;4.63;;;31.50;50.90;;;;;;5092216;28;20220;-88
2022/07/25 12:25:08;;;;;;;4.53;4.10;;;31.50;51.10;;;;;;5093766;28;20170;-88
2022/07/25 12:27:33;;;;;;;6.70;4.22;;;31.50;50.90;;;;;;5092528;28;20182;-89
2022/07/25 12:29:59;;;;;;;4.57;4.18;;;31.60;50.80;;;;;;5093600;28;20378;-88
2022/07/25 12:32:25;;;;;;;5.07;4.32;;;31.60;50.90;;;;;;5092194;28;20205;-88
2022/07/25 12:34:51;;;;;;;4.43;4.10;;;31.60;50.80;;;;;;5092282;28;20197;-88
2022/07/25 12:37:16;;;;;;;4.40;4.00;;;31.60;50.80;;;;;;5094579;28;20399;-89
2022/07/25 12:39:42;;;;;;;4.80;4.40;;;31.60;50.80;;;;;;5092323;28;20552;-88
2022/07/25 12:42:08;;;;;;;4.18;3.80;;;31.50;50.70;;;;;;5092753;28;20524;-88
2022/07/25 12:44:34;;;;;;;5.65;4.18;;;31.50;50.80;;;;;;5093912;28;20540;-88
2022/07/25 12:47:01;;;;;;;5.32;3.95;;;31.60;50.80;;;;;;5092334;28;20171;-88
2022/07/25 12:49:29;;;;;;;4.20;3.90;;;31.60;50.70;;;;;;5092449;28;20215;-88
2022/07/25 12:51:55;;;;;;;5.10;4.15;;;31.60;50.80;;;;;;5092088;28;20209;-89